createdAt,value
2023-01-07T04:02:06.194Z,5.26
2023-01-07T04:04:32.969Z,5.24
2023-01-07T04:06:59.441Z,5.32
2023-01-07T04:09:25.912Z,5.25
2023-01-07T04:11:52.383Z,5.37
2023-01-07T04:14:18.862Z,5.36
2023-01-07T04:16:45.422Z,5.27
2023-01-07T04:19:11.865Z,5.27
2023-01-07T04:21:38.298Z,5.12
2023-01-07T04:24:05.030Z,5.30
2023-01-07T04:26:32.254Z,5.22
2023-01-07T04:28:58.724Z,5.21
2023-01-07T04:31:25.212Z,5.22
2023-01-07T04:33:51.635Z,5.21
2023-01-07T04:36:18.169Z,5.14
2023-01-07T04:38:44.587Z,5.16
2023-01-07T04:41:11.026Z,5.15
2023-01-07T04:43:37.508Z,5.14
2023-01-07T04:46:04.449Z,5.13
2023-01-07T04:48:31.233Z,5.09
2023-01-07T04:50:57.875Z,5.09
2023-01-07T04:53:24.493Z,5.09
2023-01-07T04:55:53.205Z,5.00
2023-01-07T04:58:19.859Z,5.03
2023-01-07T05:00:46.429Z,5.04
2023-01-07T05:03:13.316Z,5.02
2023-01-07T05:05:39.822Z,4.93
2023-01-07T05:08:06.307Z,4.99
2023-01-07T05:10:33.044Z,4.94
2023-01-07T05:12:59.570Z,4.89
2023-01-07T05:15:25.998Z,4.82
2023-01-07T05:17:52.432Z,4.79
2023-01-07T05:20:18.875Z,4.85
2023-01-07T05:22:46.457Z,4.77
2023-01-07T05:25:12.963Z,4.72
2023-01-07T05:27:39.603Z,4.66
2023-01-07T05:30:06.531Z,4.64
2023-01-07T05:32:33.034Z,4.53
2023-01-07T05:34:59.460Z,4.56
2023-01-07T05:37:25.970Z,4.50
2023-01-07T05:39:52.375Z,4.45
2023-01-07T05:42:18.823Z,4.36
2023-01-07T05:44:45.295Z,4.31
2023-01-07T05:47:12.230Z,4.27
2023-01-07T05:49:38.631Z,4.22
2023-01-07T05:52:05.117Z,4.13
2023-01-07T05:54:31.617Z,4.05
2023-01-07T05:56:58.097Z,4.09
2023-01-07T05:59:24.577Z,4.08
2023-01-07T06:01:51.097Z,4.04
2023-01-07T06:04:17.583Z,3.94
2023-01-07T06:06:44.076Z,3.95
2023-01-07T06:09:11.027Z,3.96
2023-01-07T06:11:37.454Z,3.87
2023-01-07T06:14:03.928Z,3.80
2023-01-07T06:16:30.347Z,3.71
2023-01-07T06:18:56.794Z,3.71
2023-01-07T06:21:23.236Z,3.66
2023-01-07T06:23:49.668Z,3.59
2023-01-07T06:26:16.102Z,3.48
2023-01-07T06:28:42.536Z,3.49
2023-01-07T06:31:10.392Z,3.45
2023-01-07T06:33:37.982Z,3.40
2023-01-07T06:36:04.932Z,3.37
2023-01-07T06:38:31.373Z,3.33
2023-01-07T06:41:01.863Z,3.27
2023-01-07T06:43:29.056Z,3.24
2023-01-07T06:45:56.357Z,3.19
2023-01-07T06:48:22.964Z,3.06
2023-01-07T06:50:49.408Z,3.12
2023-01-07T06:53:16.502Z,3.09
2023-01-07T06:55:49.004Z,3.06
2023-01-07T06:58:16.431Z,2.96
2023-01-07T07:00:42.839Z,3.00
2023-01-07T07:03:09.609Z,2.93
2023-01-07T07:05:36.460Z,2.82
2023-01-07T07:08:03.189Z,2.88
2023-01-07T07:10:29.671Z,2.79
2023-01-07T07:12:56.147Z,2.76
2023-01-07T07:15:22.584Z,2.74
2023-01-07T07:17:49.100Z,2.72
2023-01-07T07:20:15.614Z,2.67
2023-01-07T07:22:46.382Z,2.75
2023-01-07T07:25:13.052Z,2.76
2023-01-07T07:27:39.512Z,2.75
2023-01-07T07:30:08.107Z,2.97
2023-01-07T07:32:34.548Z,3.22
2023-01-07T07:35:00.975Z,3.68
2023-01-07T07:37:27.429Z,4.05
2023-01-07T07:39:53.898Z,4.23
2023-01-07T07:42:20.465Z,4.46
2023-01-07T07:44:46.885Z,4.77
2023-01-07T07:47:13.396Z,5.01
2023-01-07T07:49:39.818Z,5.10
2023-01-07T07:52:06.874Z,5.34
2023-01-07T07:54:33.585Z,5.82
2023-01-07T07:57:00.152Z,6.32
2023-01-07T07:59:26.741Z,6.70
2023-01-07T08:01:53.273Z,7.08
2023-01-07T08:04:19.764Z,7.56
2023-01-07T08:06:46.189Z,8.05
2023-01-07T08:09:12.944Z,8.64
2023-01-07T08:11:39.406Z,8.73
2023-01-07T08:14:05.839Z,8.94
2023-01-07T08:16:32.328Z,9.22
2023-01-07T08:18:58.817Z,8.94
2023-01-07T08:21:25.249Z,9.55
2023-01-07T08:23:51.788Z,9.71
2023-01-07T08:26:18.226Z,9.31
2023-01-07T08:28:46.595Z,9.81
2023-01-07T08:31:13.372Z,9.62
2023-01-07T08:33:39.926Z,9.60
2023-01-07T08:36:18.155Z,8.80
2023-01-07T08:38:52.397Z,9.03
2023-01-07T08:41:20.336Z,9.41
2023-01-07T08:43:46.892Z,9.61
2023-01-07T08:46:13.456Z,9.31
2023-01-07T08:48:40.309Z,9.26
2023-01-07T08:51:07.190Z,9.56
2023-01-07T08:53:34.206Z,9.84
2023-01-07T08:56:01.052Z,10.08
2023-01-07T08:58:27.536Z,9.82
2023-01-07T09:00:54.095Z,9.38
2023-01-07T09:03:20.717Z,9.56
2023-01-07T09:05:47.450Z,9.67
2023-01-07T09:08:14.205Z,9.23
2023-01-07T09:10:40.799Z,9.27
2023-01-07T09:13:07.485Z,9.41
2023-01-07T09:15:34.216Z,9.01
2023-01-07T09:18:03.521Z,9.15
2023-01-07T09:20:30.624Z,9.16
2023-01-07T09:22:57.036Z,9.11
2023-01-07T09:25:23.520Z,9.24
2023-01-07T09:27:50.105Z,9.31
2023-01-07T09:30:17.112Z,9.20
2023-01-07T09:32:44.721Z,9.52
2023-01-07T09:35:12.113Z,9.26
2023-01-07T09:37:38.792Z,9.42
2023-01-07T09:40:06.508Z,9.26
2023-01-07T09:42:35.769Z,9.28
2023-01-07T09:45:15.711Z,9.15
2023-01-07T09:47:46.133Z,9.33
2023-01-07T09:50:23.848Z,9.68
2023-01-07T09:52:56.546Z,9.67
2023-01-07T09:55:31.480Z,9.51
2023-01-07T09:57:58.088Z,9.65
2023-01-07T10:00:25.178Z,9.54
2023-01-07T10:03:23.532Z,9.63
2023-01-07T10:06:16.198Z,9.60
2023-01-07T10:08:54.520Z,9.41
2023-01-07T10:12:03.114Z,9.31
2023-01-07T10:15:03.855Z,9.02
2023-01-07T10:17:52.396Z,8.99
2023-01-07T10:20:33.777Z,9.04
2023-01-07T10:23:02.702Z,8.98
2023-01-07T10:25:35.592Z,9.04
2023-01-07T10:28:10.917Z,8.92
2023-01-07T10:30:43.745Z,8.76
2023-01-07T10:33:26.701Z,8.75
2023-01-07T10:36:14.719Z,8.53
2023-01-07T10:38:46.360Z,8.48
2023-01-07T10:41:41.900Z,8.74
2023-01-07T10:44:32.589Z,8.69
2023-01-07T10:47:27.501Z,8.72
2023-01-07T10:50:06.243Z,8.68
2023-01-07T10:52:55.039Z,8.52
2023-01-07T10:55:53.759Z,8.60
2023-01-07T10:58:23.064Z,8.44
2023-01-07T11:00:49.654Z,8.54
2023-01-07T11:03:24.260Z,8.64
2023-01-07T11:05:56.923Z,8.61
2023-01-07T11:08:36.781Z,8.64
2023-01-07T11:11:04.088Z,8.55
2023-01-07T11:13:33.666Z,8.48
2023-01-07T11:16:11.760Z,8.50
2023-01-07T11:18:55.113Z,8.52
2023-01-07T11:21:43.290Z,8.48
2023-01-07T11:24:19.776Z,8.41
2023-01-07T11:26:46.781Z,8.29
2023-01-07T11:29:17.383Z,8.44
2023-01-07T11:31:51.541Z,8.43
2023-01-07T11:34:28.399Z,8.41
2023-01-07T11:36:54.877Z,8.45
2023-01-07T11:39:26.971Z,8.47
2023-01-07T11:42:36.073Z,8.52
2023-01-07T11:45:25.115Z,8.46
2023-01-07T11:48:08.400Z,8.35
2023-01-07T11:50:36.574Z,8.49
2023-01-07T11:53:11.482Z,8.47
2023-01-07T11:55:37.996Z,8.51
2023-01-07T11:58:28.947Z,8.48
2023-01-07T12:01:02.692Z,8.56
2023-01-07T12:03:29.227Z,8.54
2023-01-07T12:05:57.671Z,8.61
2023-01-07T12:08:27.154Z,8.54
2023-01-07T12:10:56.180Z,8.51
2023-01-07T12:13:27.472Z,8.43
2023-01-07T12:16:01.929Z,8.31
2023-01-07T12:18:46.692Z,8.21
2023-01-07T12:21:46.080Z,8.19
2023-01-07T12:24:28.250Z,8.25
2023-01-07T12:27:07.129Z,8.29
2023-01-07T12:30:16.272Z,8.34
2023-01-07T12:32:57.552Z,8.27
2023-01-07T12:35:30.245Z,8.40
2023-01-07T12:38:12.501Z,8.30
2023-01-07T12:40:44.805Z,8.44
2023-01-07T12:43:41.020Z,8.45
2023-01-07T12:46:12.144Z,8.36
2023-01-07T12:49:02.176Z,8.20
2023-01-07T12:51:35.002Z,8.22
2023-01-07T12:54:32.851Z,8.20
2023-01-07T12:57:36.746Z,8.31
2023-01-07T13:00:23.921Z,8.35
2023-01-07T13:03:08.482Z,8.34
2023-01-07T13:05:48.661Z,8.24
2023-01-07T13:08:39.789Z,8.13
2023-01-07T13:11:12.170Z,8.28
2023-01-07T13:13:47.679Z,8.36
2023-01-07T13:16:14.754Z,8.34
2023-01-07T13:18:41.356Z,8.34
2023-01-07T13:21:16.029Z,8.43
2023-01-07T13:24:20.168Z,8.35
2023-01-07T13:26:58.062Z,8.48
2023-01-07T13:29:33.583Z,8.34
2023-01-07T13:32:20.151Z,8.42
2023-01-07T13:35:17.483Z,8.50
2023-01-07T13:38:03.285Z,8.45
2023-01-07T13:41:06.687Z,8.42
2023-01-07T13:44:01.259Z,8.41
2023-01-07T13:46:38.421Z,8.41
2023-01-07T13:49:06.073Z,8.38
2023-01-07T13:51:38.169Z,8.36
2023-01-07T13:54:04.761Z,8.34
2023-01-07T13:56:39.056Z,8.31
2023-01-07T13:59:29.305Z,8.34
2023-01-07T14:02:17.329Z,8.29
2023-01-07T14:05:03.083Z,8.26
2023-01-07T14:07:30.263Z,8.27
2023-01-07T14:09:58.221Z,8.26
2023-01-07T14:12:58.606Z,8.25
2023-01-07T14:15:43.369Z,8.22
2023-01-07T14:18:32.635Z,8.17
2023-01-07T14:21:28.280Z,8.21
2023-01-07T14:24:18.724Z,8.00
2023-01-07T14:27:09.832Z,8.08
2023-01-07T14:29:47.867Z,8.04
2023-01-07T14:32:34.713Z,8.07
2023-01-07T14:35:19.774Z,8.01
2023-01-07T14:37:47.055Z,7.86
2023-01-07T14:40:25.701Z,7.85
2023-01-07T14:42:53.571Z,7.83
2023-01-07T14:45:38.975Z,7.76
2023-01-07T14:48:08.183Z,7.70
2023-01-07T14:50:47.149Z,7.62
2023-01-07T14:53:16.411Z,7.54
2023-01-07T14:56:24.865Z,7.41
2023-01-07T14:59:06.587Z,7.37
2023-01-07T15:02:28.686Z,7.42
2023-01-07T15:05:08.121Z,7.26
2023-01-07T15:07:38.506Z,7.11
2023-01-07T15:10:47.017Z,7.03
2023-01-07T15:13:36.914Z,6.96
2023-01-07T15:16:11.416Z,6.92
2023-01-07T15:18:48.538Z,6.70
2023-01-07T15:21:25.983Z,6.60
2023-01-07T15:24:07.766Z,6.43
2023-01-07T15:26:48.901Z,6.37
2023-01-07T15:29:23.571Z,6.23
2023-01-07T15:32:12.712Z,6.09
2023-01-07T15:34:40.217Z,5.97
2023-01-07T15:37:08.695Z,5.90
2023-01-07T15:39:43.239Z,5.79
2023-01-07T15:42:16.214Z,5.75
2023-01-07T15:44:43.293Z,5.63
2023-01-07T15:47:37.475Z,5.57
2023-01-07T15:50:20.806Z,5.57
2023-01-07T15:52:53.285Z,5.41
2023-01-07T15:55:27.560Z,5.37
2023-01-07T15:58:00.788Z,5.33
2023-01-07T16:00:27.581Z,5.10
2023-01-07T16:02:54.875Z,5.04
2023-01-07T16:05:21.602Z,5.01
2023-01-07T16:07:47.982Z,4.94
2023-01-07T16:10:23.553Z,4.93
2023-01-07T16:12:52.892Z,4.96
2023-01-07T16:15:29.637Z,4.88
2023-01-07T16:17:58.886Z,4.82
2023-01-07T16:20:32.049Z,4.78
2023-01-07T16:23:04.555Z,4.73
2023-01-07T16:25:53.819Z,4.63
2023-01-07T16:28:34.073Z,4.59
2023-01-07T16:31:03.767Z,4.60
2023-01-07T16:33:32.080Z,4.52
2023-01-07T16:36:01.209Z,4.48
2023-01-07T16:38:28.204Z,4.40
2023-01-07T16:40:55.380Z,4.37
2023-01-07T16:43:39.558Z,4.34
2023-01-07T16:46:20.035Z,4.34
2023-01-07T16:48:47.982Z,4.24
2023-01-07T16:51:44.221Z,4.19
2023-01-07T16:54:25.825Z,4.13
2023-01-07T16:56:56.648Z,4.02
2023-01-07T16:59:28.519Z,3.98
2023-01-07T17:01:55.351Z,3.96
2023-01-07T17:04:30.380Z,3.89
2023-01-07T17:06:59.142Z,3.84
2023-01-07T17:09:25.578Z,3.84
2023-01-07T17:11:53.650Z,3.80
2023-01-07T17:14:43.811Z,3.76
2023-01-07T17:17:14.941Z,3.70
2023-01-07T17:20:03.198Z,3.67
2023-01-07T17:22:33.957Z,3.60
2023-01-07T17:25:11.248Z,3.45
2023-01-07T17:27:47.294Z,3.36
2023-01-07T17:30:19.473Z,3.39
2023-01-07T17:32:48.045Z,3.42
2023-01-07T17:35:20.845Z,3.42
2023-01-07T17:37:48.034Z,3.36
2023-01-07T17:43:33.490Z,3.27
2023-01-07T17:46:01.376Z,3.28
2023-01-07T17:48:28.486Z,3.28
2023-01-07T17:50:57.156Z,3.24
2023-01-07T17:53:27.446Z,3.17
2023-01-07T17:55:54.080Z,3.17
2023-01-07T17:58:34.451Z,3.09
2023-01-07T18:01:05.535Z,3.04
2023-01-07T18:03:32.091Z,3.01
2023-01-07T18:05:58.550Z,2.99
2023-01-07T18:08:25.271Z,3.01
2023-01-07T18:11:11.751Z,2.96
2023-01-07T18:13:38.392Z,2.89
2023-01-07T18:16:05.824Z,2.84
2023-01-07T18:18:32.371Z,2.90
2023-01-07T18:20:59.028Z,2.79
2023-01-07T18:23:25.578Z,2.80
2023-01-07T18:25:52.166Z,2.72
2023-01-07T18:28:18.618Z,2.66
2023-01-07T18:30:45.023Z,2.67
2023-01-07T18:33:12.013Z,2.68
2023-01-07T18:35:40.740Z,2.66
2023-01-07T18:38:13.029Z,2.65
2023-01-07T18:40:39.975Z,2.54
2023-01-07T18:43:06.841Z,2.43
2023-01-07T18:45:33.345Z,2.44
2023-01-07T18:47:59.813Z,2.38
2023-01-07T18:50:26.318Z,2.46
2023-01-07T18:56:40.003Z,2.31
2023-01-07T18:59:06.689Z,2.26
2023-01-07T19:01:33.329Z,2.33
2023-01-07T19:04:00.160Z,2.23
2023-01-07T19:06:26.772Z,2.18
2023-01-07T19:08:54.242Z,2.15
2023-01-07T19:11:20.670Z,2.14
2023-01-07T19:13:47.104Z,2.12
2023-01-07T19:16:14.842Z,2.14
2023-01-07T19:18:41.343Z,2.14
2023-01-07T19:21:10.919Z,2.12
2023-01-07T19:23:37.621Z,2.08
2023-01-07T19:26:07.200Z,2.08
2023-01-07T19:28:33.802Z,2.05
2023-01-07T19:31:05.150Z,1.97
2023-01-07T19:33:31.732Z,1.90
2023-01-07T19:36:03.742Z,1.89
2023-01-07T19:38:30.285Z,1.84
2023-01-07T19:40:56.797Z,1.76
2023-01-07T19:43:23.471Z,1.68
2023-01-07T19:45:56.936Z,1.72
2023-01-07T19:48:23.744Z,1.60
2023-01-07T19:50:58.562Z,1.55
2023-01-07T19:53:26.137Z,1.33
2023-01-07T19:55:54.360Z,1.41
2023-01-07T19:58:21.553Z,1.39
2023-01-07T20:00:48.358Z,1.45
2023-01-07T20:03:15.209Z,1.36
2023-01-07T20:05:41.743Z,1.33
2023-01-07T20:08:08.345Z,1.42
2023-01-07T20:10:35.179Z,1.36
2023-01-07T20:13:01.747Z,1.28
2023-01-07T20:15:28.791Z,1.30
2023-01-07T20:17:55.375Z,1.28
2023-01-07T20:20:23.512Z,1.21
2023-01-07T20:22:51.804Z,1.04
2023-01-07T20:25:18.343Z,0.99
2023-01-07T20:27:44.854Z,1.02
2023-01-07T20:30:12.210Z,1.09
2023-01-07T20:32:38.627Z,1.04
2023-01-07T20:35:05.599Z,0.99
2023-01-07T20:37:32.070Z,1.06
2023-01-07T20:39:58.813Z,1.05
2023-01-07T20:42:25.291Z,0.90
2023-01-07T20:44:52.405Z,0.90
2023-01-07T20:47:18.836Z,0.94
2023-01-07T20:49:45.352Z,1.14
2023-01-07T20:52:11.935Z,1.18
2023-01-07T20:54:38.430Z,1.20
2023-01-07T20:57:05.021Z,1.20
2023-01-07T20:59:31.541Z,1.26
2023-01-07T21:01:58.135Z,1.22
2023-01-07T21:04:24.756Z,1.22
2023-01-07T21:06:51.209Z,1.21
2023-01-07T21:09:19.646Z,1.21
2023-01-07T21:11:47.360Z,1.22
2023-01-07T21:14:13.869Z,1.27
2023-01-07T21:16:40.529Z,1.27
2023-01-07T21:19:06.963Z,1.28
2023-01-07T21:21:33.419Z,1.11
2023-01-07T21:23:59.885Z,1.21
2023-01-07T21:26:26.392Z,1.24
2023-01-07T21:28:55.976Z,1.29
2023-01-07T21:31:23.481Z,1.38
2023-01-07T21:33:53.483Z,1.43
2023-01-07T21:36:20.054Z,1.40
2023-01-07T21:38:51.303Z,1.35
2023-01-07T21:41:17.796Z,1.30
2023-01-07T21:43:44.511Z,1.17
2023-01-07T21:46:11.431Z,1.02
2023-01-07T21:48:39.814Z,1.02
2023-01-07T21:51:16.955Z,0.95
2023-01-07T21:53:43.510Z,0.87
2023-01-07T21:56:13.210Z,0.84
2023-01-07T21:58:39.962Z,0.94
2023-01-07T22:01:06.998Z,0.88
2023-01-07T22:03:35.365Z,0.92
2023-01-07T22:06:06.649Z,0.82
2023-01-07T22:08:34.058Z,0.82
2023-01-07T22:11:00.714Z,0.56
2023-01-07T22:13:27.152Z,0.34
2023-01-07T22:15:53.871Z,0.26
2023-01-07T22:18:20.401Z,0.29
2023-01-07T22:20:53.645Z,0.38
2023-01-07T22:23:20.158Z,0.44
2023-01-07T22:25:46.663Z,0.43
2023-01-07T22:28:15.995Z,0.51
2023-01-07T23:05:49.059Z,-0.16
2023-01-07T23:08:15.913Z,-0.32
2023-01-07T23:10:45.235Z,-0.34
2023-01-07T23:13:11.979Z,-0.31
2023-01-07T23:15:39.136Z,-0.40
2023-01-07T23:18:06.854Z,-0.33
2023-01-07T23:20:43.299Z,-0.30
2023-01-07T23:23:11.838Z,-0.40
2023-01-07T23:25:45.089Z,-0.31
2023-01-07T23:28:11.587Z,-0.19
2023-01-07T23:30:38.055Z,-0.19
2023-01-07T23:33:04.534Z,-0.16
2023-01-07T23:35:31.118Z,-0.18
2023-01-07T23:37:57.565Z,-0.30
2023-01-07T23:40:24.050Z,-0.36
2023-01-07T23:42:50.495Z,-0.35
2023-01-07T23:45:17.348Z,-0.28
2023-01-07T23:47:45.081Z,-0.22
2023-01-07T23:50:12.557Z,-0.18
2023-01-07T23:52:39.992Z,-0.12
2023-01-07T23:55:07.163Z,-0.20
2023-01-07T23:57:33.628Z,-0.23
